Flight Briefing for CPX762

Departure Arrival
Jorge Chávez International Airport (SPJC)
Click to view FAA NOTAMS
Miami International Airport (KMIA)
Click to view FAA NOTAMS
Departure Time Arrival Time
0930 UTC 1530 UTC
Aircraft Distance
B767-300BDSF 2376nm
Departure METAR Arrival METAR
SPJC 180600Z 17006KT CAVOK 23/21 Q1013 NOSIG RMK PP000 KMIA 180553Z 14006KT 10SM FEW030 SCT050 SCT065 24/24 A3004 RMK AO2 SLP173 T02440239 10250 20239 58002
Suggested Route
XOPLI UG448 IKBIX Y183 PEAKY DVALL CURSO5


View recent IFR Routes data
Notes



Charts and Procedures

Charts for SPJC
No chart available
Charts for KMIA
No chart available

Ventusky Weather